Time;durP1;ratioP1;P1;durP2;ratioP2;P2;SDS_P1;SDS_P2;PMS_P1;PMS_P2;Temp;Humidity;BMP_temperature;BMP_pressure;BME280_temperature;BME280_humidity;BME280_pressure;Samples;Min_cycle;Max_cycle;Signal;HPM_P1;HPM_P2
2022/08/10 00:01:14;;;;;;;;;14.00;13.60;;;;;24.44;39.54;99662.59;6242151;27;97085;-54
2022/08/10 00:04:18;;;;;;;;;21.00;19.00;;;;;24.39;39.69;99668.16;6236791;28;97491;-52
2022/08/10 00:07:23;;;;;;;;;17.00;16.00;;;;;24.31;40.00;99657.78;6238888;28;96920;-52
2022/08/10 00:10:27;;;;;;;;;16.00;16.00;;;;;24.15;39.89;99639.75;6238050;27;97004;-55
2022/08/10 00:13:30;;;;;;;;;16.20;16.00;;;;;24.22;39.96;99642.19;6236772;27;97433;-56
2022/08/10 00:16:35;;;;;;;;;14.75;14.00;;;;;24.18;40.22;99641.97;6243185;27;97484;-54
2022/08/10 00:19:38;;;;;;;;;15.00;15.00;;;;;24.14;40.34;99651.91;6238415;28;96701;-53
2022/08/10 00:23:04;;;;;;;;;20.50;19.00;;;;;24.09;40.29;99649.22;6236872;28;97555;-53
2022/08/10 00:26:08;;;;;;;;;17.00;17.00;;;;;23.90;40.23;99627.06;6237118;27;98042;-54
2022/08/10 00:29:12;;;;;;;;;17.60;17.60;;;;;24.00;40.27;99643.50;6242241;27;97475;-54
2022/08/10 00:32:16;;;;;;;;;17.00;15.60;;;;;23.95;40.68;99643.53;6236361;27;97044;-55
2022/08/10 00:35:20;;;;;;;;;17.00;17.00;;;;;23.92;40.93;99651.56;6233029;28;96740;-54
2022/08/10 00:38:23;;;;;;;;;20.80;18.80;;;;;23.86;40.91;99645.28;6242992;27;97329;-54
2022/08/10 00:41:26;;;;;;;;;16.20;15.60;;;;;23.83;40.98;99648.63;6241784;27;97111;-52
2022/08/10 00:44:30;;;;;;;;;20.25;20.25;;;;;23.81;41.24;99648.09;6226732;28;97081;-53
2022/08/10 00:47:35;;;;;;;;;18.60;18.60;;;;;23.76;41.26;99639.88;6244702;27;97161;-53
2022/08/10 00:50:40;;;;;;;;;19.00;18.00;;;;;23.70;41.11;99647.38;6239777;27;97473;-55
2022/08/10 00:53:43;;;;;;;;;17.25;17.25;;;;;23.67;41.47;99645.19;6241535;27;97150;-54
2022/08/10 00:56:47;;;;;;;;;17.50;17.50;;;;;23.62;41.68;99644.41;6239757;28;96764;-54
2022/08/10 01:00:11;;;;;;;;;19.00;18.00;;;;;23.59;41.49;99645.84;6239912;27;97657;-55
2022/08/10 01:03:16;;;;;;;;;23.40;20.40;;;;;23.56;41.74;99642.81;6233291;27;97262;-53
2022/08/10 01:06:48;;;;;;;;;18.00;17.20;;;;;23.53;41.44;99652.47;6241565;28;97655;-53
2022/08/10 01:10:02;;;;;;;;;18.00;16.60;;;;;22.97;41.56;99563.22;6241338;27;96936;-54
2022/08/10 01:13:12;;;;;;;;;22.00;21.00;;;;;23.47;41.39;99650.06;6239241;27;97286;-52
2022/08/10 01:16:23;;;;;;;;;26.00;25.75;;;;;23.47;41.71;99653.63;6240374;28;98342;-56
2022/08/10 01:19:42;;;;;;;;;16.00;15.00;;;;;23.45;41.64;99644.03;6252925;27;96738;-54
2022/08/10 01:23:04;;;;;;;;;18.50;17.50;;;;;23.43;41.39;99643.44;6234710;27;97101;-53
2022/08/10 01:26:31;;;;;;;;;19.75;19.50;;;;;23.39;41.65;99642.38;6231816;27;97538;-54
2022/08/10 01:29:53;;;;;;;;;24.80;24.20;;;;;23.32;42.11;99642.72;6230186;28;96710;-53
2022/08/10 01:33:03;;;;;;;;;25.40;25.00;;;;;23.23;42.28;99648.00;6232196;28;97024;-54
2022/08/10 01:36:12;;;;;;;;;18.80;17.80;;;;;22.96;42.10;99611.91;6230206;27;97263;-54
2022/08/10 01:39:23;;;;;;;;;21.00;20.33;;;;;23.12;42.17;99640.09;6240407;27;96837;-56
2022/08/10 01:42:30;;;;;;;;;24.00;24.00;;;;;23.08;42.24;99637.09;6238390;28;97514;-52
2022/08/10 01:45:38;;;;;;;;;31.00;30.00;;;;;23.04;42.25;99640.72;6239394;28;96674;-55
2022/08/10 01:48:51;;;;;;;;;25.40;25.00;;;;;23.01;42.29;99639.38;6227520;27;99231;-56
2022/08/10 01:51:58;;;;;;;;;26.00;25.60;;;;;22.98;42.56;99644.59;6242824;27;97276;-54
2022/08/10 01:55:04;;;;;;;;;26.33;25.67;;;;;22.93;42.51;99645.44;6235271;27;96792;-54
2022/08/10 01:58:10;;;;;;;;;24.00;23.00;;;;;22.86;43.00;99636.72;6239855;27;97973;-54
2022/08/10 02:01:19;;;;;;;;;24.00;23.60;;;;;22.82;42.87;99632.88;6238508;27;97141;-53
2022/08/10 02:04:27;;;;;;;;;30.00;27.00;;;;;22.79;42.94;99637.00;6234091;28;96595;-55
2022/08/10 02:07:33;;;;;;;;;30.80;29.80;;;;;22.77;42.77;99639.22;6225954;28;96693;-54
2022/08/10 02:10:42;;;;;;;;;25.20;24.20;;;;;22.75;43.01;99640.63;6239838;28;97790;-54
2022/08/10 02:13:47;;;;;;;;;28.00;28.00;;;;;22.72;43.12;99644.75;6231295;27;98342;-53
2022/08/10 02:16:53;;;;;;;;;24.00;24.00;;;;;22.70;42.69;99635.09;6245239;27;97812;-53
2022/08/10 02:19:59;;;;;;;;;22.60;22.60;;;;;22.69;42.73;99641.69;6239918;27;97440;-54
2022/08/10 02:23:07;;;;;;;;;31.00;30.00;;;;;22.66;43.09;99639.53;6228863;27;97328;-53
2022/08/10 02:26:12;;;;;;;;;3.00;2.00;;;;;22.65;42.99;99641.47;6240103;28;97380;-54
2022/08/10 02:29:17;;;;;;;;;31.50;30.50;;;;;22.63;42.95;99643.66;6239451;28;96755;-56
2022/08/10 02:32:25;;;;;;;;;31.40;30.00;;;;;22.62;42.89;99646.69;6237961;27;98592;-52
2022/08/10 02:35:42;;;;;;;;;27.00;27.00;;;;;22.59;43.43;99652.75;6237011;27;97463;-55
2022/08/10 02:39:03;;;;;;;;;33.00;32.00;;;;;22.56;43.00;99647.81;6241315;27;97233;-54
2022/08/10 02:42:16;;;;;;;;;31.00;30.00;;;;;22.52;43.14;99658.56;6240340;28;96545;-56
2022/08/10 02:45:44;;;;;;;;;30.00;29.40;;;;;22.44;43.12;99643.47;6228694;27;97447;-53
2022/08/10 02:48:54;;;;;;;;;31.60;30.00;;;;;22.39;43.39;99648.97;6238464;28;97685;-55
2022/08/10 02:52:01;;;;;;;;;24.00;24.00;;;;;22.48;43.33;99651.16;6239746;28;96997;-56
2022/08/10 02:55:16;;;;;;;;;27.00;26.00;;;;;22.44;43.07;99670.94;6244794;27;96982;-54
2022/08/10 02:58:26;;;;;;;;;27.00;27.00;;;;;22.42;43.48;99666.84;6238137;27;97555;-53
2022/08/10 03:01:34;;;;;;;;;30.75;29.75;;;;;22.40;43.12;99664.38;6236404;27;97273;-55
2022/08/10 03:04:43;;;;;;;;;29.40;29.00;;;;;22.39;43.20;99670.97;6240488;27;97977;-54
2022/08/10 03:08:01;;;;;;;;;31.00;30.00;;;;;22.39;43.31;99672.88;6239549;27;97845;-55
2022/08/10 03:11:07;;;;;;;;;30.00;30.00;;;;;22.38;43.59;99672.06;6234524;28;97071;-52
2022/08/10 03:14:13;;;;;;;;;28.33;28.33;;;;;22.39;43.33;99676.44;6236808;27;97360;-56
2022/08/10 03:17:17;;;;;;;;;40.00;35.00;;;;;22.36;43.50;99671.53;6239183;27;96989;-54
2022/08/10 03:20:24;;;;;;;;;35.50;33.00;;;;;22.36;43.91;99678.94;6225709;27;96823;-54
2022/08/10 03:23:43;;;;;;;;;42.00;36.25;;;;;22.35;43.90;99680.88;6246341;27;96575;-55
2022/08/10 03:26:46;;;;;;;;;39.00;35.00;;;;;22.33;43.49;99683.06;6236674;28;96997;-55
2022/08/10 03:29:51;;;;;;;;;39.00;34.50;;;;;22.30;43.91;99688.28;6236026;27;97573;-55
2022/08/10 03:33:17;;;;;;;;;42.60;37.40;;;;;22.28;43.82;99696.00;6244477;27;97104;-55
2022/08/10 03:36:21;;;;;;;;;41.60;36.60;;;;;22.25;43.79;99688.31;6234344;27;97520;-53
2022/08/10 03:39:45;;;;;;;;;41.25;36.25;;;;;22.24;43.53;99697.66;6238290;27;96930;-53
2022/08/10 03:42:51;;;;;;;;;42.00;37.00;;;;;22.11;43.44;99676.25;6235309;27;96985;-53
2022/08/10 03:46:01;;;;;;;;;43.50;37.75;;;;;22.16;43.48;99685.31;6233113;27;98357;-55
2022/08/10 03:49:05;;;;;;;;;46.00;39.80;;;;;22.22;43.36;99703.44;6237182;27;97418;-54
2022/08/10 03:52:10;;;;;;;;;48.40;41.00;;;;;22.22;43.72;99700.69;6223282;27;99238;-53
2022/08/10 03:55:14;;;;;;;;;47.00;40.00;;;;;22.22;43.80;99697.94;6222677;27;97145;-55
2022/08/10 03:58:39;;;;;;;;;47.00;40.40;;;;;22.24;43.37;99698.47;6229421;27;97253;-56
2022/08/10 04:01:43;;;;;;;;;45.00;39.00;;;;;22.28;43.60;99702.34;6227352;27;97357;-55
2022/08/10 04:05:07;;;;;;;;;47.00;40.40;;;;;22.32;43.73;99700.66;6229864;27;97447;-55
2022/08/10 04:08:14;;;;;;;;;39.00;35.00;;;;;22.36;43.59;99696.25;6226420;27;96887;-54
2022/08/10 04:11:17;;;;;;;;;42.80;36.80;;;;;22.42;43.34;99702.56;6233093;28;97402;-52
2022/08/10 04:14:21;;;;;;;;;44.00;38.00;;;;;22.48;43.45;99708.88;6235267;27;97427;-53
2022/08/10 04:17:44;;;;;;;;;44.00;38.00;;;;;22.55;43.92;99714.88;6240171;27;96766;-53
2022/08/10 04:21:13;;;;;;;;;34.20;31.80;;;;;22.44;43.83;99690.19;6237099;27;97134;-52
2022/08/10 04:24:22;;;;;;;;;34.75;32.75;;;;;22.68;43.83;99714.28;6251078;27;97356;-52
2022/08/10 04:27:32;;;;;;;;;31.00;30.00;;;;;22.76;43.73;99716.50;6241080;27;96808;-54
2022/08/10 04:30:36;;;;;;;;;42.50;36.75;;;;;22.75;43.98;99695.59;6246239;27;97666;-55
2022/08/10 04:33:44;;;;;;;;;27.00;26.50;;;;;22.96;43.45;99707.31;6234847;28;96604;-55
2022/08/10 04:36:49;;;;;;;;;23.75;21.75;;;;;23.08;43.11;99718.78;6241767;28;97066;-54
2022/08/10 04:39:55;;;;;;;;;28.60;27.40;;;;;23.19;43.30;99717.63;6239546;27;97010;-52
2022/08/10 04:43:00;;;;;;;;;28.40;28.40;;;;;23.30;43.59;99721.97;6242048;27;96827;-54
2022/08/10 04:46:13;;;;;;;;;20.75;20.75;;;;;23.41;43.02;99722.75;6244757;27;97149;-55
2022/08/10 04:49:38;;;;;;;;;19.00;18.00;;;;;23.51;43.11;99728.19;6235897;28;96968;-53
2022/08/10 04:52:58;;;;;;;;;22.25;22.00;;;;;23.61;43.22;99723.44;6230875;27;97088;-55
2022/08/10 04:56:03;;;;;;;;;18.00;18.00;;;;;23.72;43.05;99724.19;6232937;28;96955;-53
2022/08/10 04:59:08;;;;;;;;;32.00;31.00;;;;;23.83;42.97;99728.50;6236044;27;98053;-53
2022/08/10 05:02:11;;;;;;;;;21.20;20.60;;;;;23.93;42.80;99731.16;6239162;27;97102;-52
2022/08/10 05:05:33;;;;;;;;;22.40;20.80;;;;;24.04;42.50;99729.94;6237226;28;96976;-54
2022/08/10 05:08:36;;;;;;;;;20.00;20.00;;;;;24.14;41.83;99729.84;6229285;27;97400;-52
2022/08/10 05:11:42;;;;;;;;;22.60;21.60;;;;;24.25;41.92;99744.38;6238195;28;96887;-56
2022/08/10 05:14:46;;;;;;;;;18.00;18.00;;;;;24.36;42.05;99732.16;6239062;28;96698;-58
2022/08/10 05:17:50;;;;;;;;;21.60;20.60;;;;;24.46;41.88;99742.25;6237857;27;97604;-55
2022/08/10 05:21:12;;;;;;;;;11.80;11.20;;;;;24.56;41.47;99736.63;6240282;27;97151;-53
2022/08/10 05:24:35;;;;;;;;;25.60;24.00;;;;;24.67;41.38;99732.66;6232340;28;96694;-56
2022/08/10 05:27:41;;;;;;;;;32.00;30.00;;;;;24.75;41.27;99723.72;6236746;27;97500;-55
2022/08/10 05:30:44;;;;;;;;;21.00;20.00;;;;;24.85;40.93;99731.88;6236909;28;97065;-52
2022/08/10 05:33:48;;;;;;;;;14.00;13.00;;;;;24.93;40.57;99730.41;6231837;27;97220;-53
2022/08/10 05:36:54;;;;;;;;;24.00;23.00;;;;;25.02;40.59;99723.94;6234322;27;97099;-56
2022/08/10 05:39:57;;;;;;;;;25.50;23.25;;;;;25.12;40.22;99734.00;6242807;27;96823;-53
2022/08/10 05:43:02;;;;;;;;;21.00;21.00;;;;;25.23;40.18;99729.16;6240477;27;96575;-56
2022/08/10 05:46:06;;;;;;;;;22.00;21.00;;;;;25.31;40.10;99728.53;6233238;27;97376;-54
2022/08/10 05:49:22;;;;;;;;;20.75;18.75;;;;;25.41;39.80;99728.38;6221065;28;97017;-57
2022/08/10 05:52:25;;;;;;;;;14.60;13.60;;;;;25.48;39.96;99731.56;6225012;27;97004;-55
2022/08/10 05:55:30;;;;;;;;;18.50;18.50;;;;;25.57;39.74;99738.09;6233748;27;96864;-56
2022/08/10 05:58:36;;;;;;;;;19.00;19.00;;;;;25.66;39.66;99741.81;6222623;27;96928;-56
2022/08/10 06:01:43;;;;;;;;;21.00;19.40;;;;;25.76;39.30;99740.81;6229677;28;96657;-54
2022/08/10 06:05:09;;;;;;;;;18.80;16.80;;;;;25.84;38.90;99732.69;6219062;28;97781;-53
2022/08/10 06:08:16;;;;;;;;;21.00;20.00;;;;;25.90;39.05;99736.19;6215350;28;97096;-53
2022/08/10 06:11:22;;;;;;;;;22.00;22.00;;;;;25.98;38.79;99734.66;6232548;28;97233;-53
2022/08/10 06:15:03;;;;;;;;;20.00;19.50;;;;;26.07;38.60;99739.19;6236463;28;96759;-54
2022/08/10 06:18:14;;;;;;;;;19.00;18.50;;;;;26.14;38.58;99739.63;6234968;27;97067;-51
2022/08/10 06:21:19;;;;;;;;;18.00;16.00;;;;;26.23;38.67;99739.78;6227920;28;97984;-56
2022/08/10 06:24:24;;;;;;;;;21.60;20.60;;;;;26.32;38.21;99742.66;6233759;27;97785;-54
2022/08/10 06:27:33;;;;;;;;;18.50;18.50;;;;;26.45;38.93;99742.66;6230461;28;97430;-56
2022/08/10 06:30:39;;;;;;;;;18.00;17.00;;;;;26.55;38.15;99742.47;6236596;27;96964;-57
2022/08/10 06:33:45;;;;;;;;;18.80;18.00;;;;;26.65;37.36;99739.50;6238670;28;96713;-61
2022/08/10 06:36:49;;;;;;;;;18.00;17.20;;;;;26.72;37.26;99744.66;6237709;27;98018;-53
2022/08/10 06:39:53;;;;;;;;;15.00;14.00;;;;;26.84;37.56;99741.34;6236411;27;97002;-52
2022/08/10 06:43:00;;;;;;;;;14.00;13.00;;;;;26.99;37.32;99739.13;6236096;28;96926;-53
2022/08/10 06:46:08;;;;;;;;;15.80;15.80;;;;;26.96;37.53;99711.25;6238131;28;96965;-55
2022/08/10 06:49:14;;;;;;;;;18.00;16.50;;;;;27.30;37.12;99730.16;6227048;27;97393;-54
2022/08/10 06:52:19;;;;;;;;;16.20;15.20;;;;;27.48;36.72;99738.31;6234252;28;97484;-53
2022/08/10 06:55:24;;;;;;;;;18.00;18.00;;;;;27.60;36.94;99739.75;6226363;27;96582;-55
2022/08/10 06:58:47;;;;;;;;;20.40;19.00;;;;;27.70;36.39;99737.56;6228740;28;97457;-54
2022/08/10 07:01:57;;;;;;;;;14.25;14.25;;;;;27.87;36.60;99742.38;6221931;27;96735;-51
2022/08/10 07:05:03;;;;;;;;;12.20;12.20;;;;;28.08;36.82;99735.19;6233227;27;97456;-60
2022/08/10 07:08:07;;;;;;;;;17.20;17.00;;;;;28.29;35.90;99736.34;6231761;28;97307;-51
2022/08/10 07:11:12;;;;;;;;;16.33;16.00;;;;;28.48;34.80;99743.59;6234520;27;96583;-54
2022/08/10 07:14:18;;;;;;;;;18.50;17.00;;;;;28.60;34.95;99741.84;6218489;28;97362;-54
2022/08/10 07:17:26;;;;;;;;;18.00;17.00;;;;;28.75;34.95;99741.47;6225480;28;96864;-52
2022/08/10 07:20:30;;;;;;;;;16.80;16.20;;;;;28.95;34.32;99744.78;6234725;27;96917;-54
2022/08/10 07:23:35;;;;;;;;;20.60;18.60;;;;;29.10;34.17;99742.38;6233695;28;97510;-52
2022/08/10 07:26:59;;;;;;;;;17.50;16.75;;;;;29.27;33.30;99745.16;6227172;28;98018;-52
2022/08/10 07:30:04;;;;;;;;;19.50;17.50;;;;;29.41;34.00;99749.81;6229379;28;98063;-57
2022/08/10 07:33:11;;;;;;;;;19.00;17.80;;;;;29.48;32.67;99750.94;6231781;28;97779;-56
2022/08/10 07:36:15;;;;;;;;;21.40;21.00;;;;;29.57;32.79;99743.44;6219117;27;97057;-58
2022/08/10 07:39:21;;;;;;;;;17.00;17.00;;;;;29.67;33.62;99747.84;6227683;28;97145;-56
2022/08/10 07:42:47;;;;;;;;;19.75;19.25;;;;;29.81;32.84;99737.38;6235148;28;96300;-54
2022/08/10 07:45:50;;;;;;;;;20.00;18.75;;;;;29.91;32.34;99744.63;6224271;28;96936;-56
2022/08/10 07:49:02;;;;;;;;;17.60;17.00;;;;;29.95;32.01;99740.84;6230982;28;97478;-54
2022/08/10 07:52:23;;;;;;;;;19.00;17.60;;;;;30.02;32.96;99741.16;6218319;28;96899;-52
2022/08/10 07:55:27;;;;;;;;;16.00;15.00;;;;;30.16;33.30;99746.50;6234726;27;97478;-57
2022/08/10 07:58:56;;;;;;;;;17.60;17.00;;;;;30.32;32.63;99739.28;6232709;28;97147;-52
2022/08/10 08:02:02;;;;;;;;;17.60;16.60;;;;;30.46;32.58;99744.66;6233465;28;96881;-53
2022/08/10 08:05:12;;;;;;;;;15.00;15.00;;;;;30.59;31.33;99738.09;6229612;28;97515;-53
2022/08/10 08:08:38;;;;;;;;;18.00;17.00;;;;;30.68;32.01;99730.50;6227968;28;97794;-53
2022/08/10 08:11:44;;;;;;;;;14.00;12.80;;;;;30.86;31.06;99740.41;6232602;28;98076;-53
2022/08/10 08:14:48;;;;;;;;;17.00;16.00;;;;;30.99;30.32;99738.50;6227517;28;97437;-58
2022/08/10 08:17:54;;;;;;;;;16.00;16.00;;;;;31.11;30.59;99737.84;6227071;28;99895;-58
2022/08/10 08:21:05;;;;;;;;;16.50;16.25;;;;;31.21;30.58;99731.88;6236740;28;97119;-61
2022/08/10 08:24:29;;;;;;;;;16.00;15.60;;;;;31.36;30.58;99734.06;6236271;27;96732;-58
2022/08/10 08:27:37;;;;;;;;;13.50;13.50;;;;;31.47;30.27;99732.50;6232355;28;97117;-55
2022/08/10 08:30:42;;;;;;;;;6.60;6.00;;;;;31.56;30.25;99716.56;6236065;28;97749;-53
2022/08/10 08:33:52;;;;;;;;;14.00;14.00;;;;;31.59;29.46;99729.81;6234342;28;96731;-56
2022/08/10 08:36:59;;;;;;;;;16.00;15.00;;;;;31.65;29.63;99711.72;6230024;27;97380;-58
2022/08/10 08:40:06;;;;;;;;;15.00;14.00;;;;;31.83;30.49;99718.75;6232956;28;96772;-55
2022/08/10 08:43:29;;;;;;;;;15.00;15.00;;;;;32.05;30.00;99716.75;6236102;28;97408;-56
2022/08/10 08:47:00;;;;;;;;;16.00;15.00;;;;;32.25;30.49;99713.13;6235914;28;97268;-54
2022/08/10 08:50:16;;;;;;;;;15.00;14.00;;;;;32.44;29.18;99704.19;6234767;28;97345;-56
2022/08/10 08:53:36;;;;;;;;;11.60;11.00;;;;;32.57;28.45;99709.44;6232729;27;97414;-56
2022/08/10 08:57:05;;;;;;;;;10.00;10.00;;;;;32.68;27.70;99709.81;6236327;28;96671;-62
2022/08/10 09:00:16;;;;;;;;;13.25;12.25;;;;;32.83;27.13;99702.72;6235798;27;96674;-55
2022/08/10 09:03:32;;;;;;;;;10.00;10.00;;;;;33.01;27.64;99704.09;6234505;28;96854;-58
2022/08/10 09:06:52;;;;;;;;;12.25;12.25;;;;;33.15;27.75;99693.34;6231904;28;97529;-58
2022/08/10 09:10:14;;;;;;;;;10.40;9.40;;;;;33.22;26.33;99704.78;6233892;27;97205;-56
2022/08/10 09:13:28;;;;;;;;;10.00;8.60;;;;;33.30;25.57;99706.63;6230875;28;96794;-57
2022/08/10 09:16:42;;;;;;;;;11.50;11.00;;;;;33.38;25.43;99699.28;6232363;28;97733;-58
2022/08/10 09:19:52;;;;;;;;;8.00;8.00;;;;;33.50;26.63;99702.03;6217581;28;96519;-54
2022/08/10 09:23:03;;;;;;;;;8.50;8.50;;;;;33.57;25.67;99698.63;6238503;28;97444;-56
2022/08/10 09:26:17;;;;;;;;;11.25;11.25;;;;;33.58;24.81;99700.25;6233501;28;97544;-54
2022/08/10 09:29:26;;;;;;;;;10.00;10.00;;;;;33.52;23.85;99696.91;6235144;27;98537;-59
2022/08/10 09:32:39;;;;;;;;;9.00;9.00;;;;;33.51;24.59;99704.47;6249125;27;97789;-59
2022/08/10 09:36:11;;;;;;;;;10.00;10.00;;;;;33.60;24.33;99697.91;6233674;27;96750;-58
2022/08/10 09:39:42;;;;;;;;;6.80;6.80;;;;;33.64;24.38;99699.66;6235319;28;96958;-56
2022/08/10 09:43:16;;;;;;;;;7.00;7.00;;;;;33.67;23.98;99687.81;6232349;28;97398;-60
2022/08/10 09:46:42;;;;;;;;;6.80;6.80;;;;;33.72;23.96;99681.13;6235982;27;96933;-57
2022/08/10 09:50:03;;;;;;;;;9.00;9.00;;;;;33.67;23.59;99656.19;6232537;27;97077;-58
2022/08/10 09:53:16;;;;;;;;;8.40;7.00;;;;;33.89;23.25;99670.44;6233889;28;98088;-58
2022/08/10 09:56:28;;;;;;;;;8.75;8.75;;;;;33.97;22.60;99674.22;6228427;28;97424;-61
2022/08/10 09:59:40;;;;;;;;;9.00;9.00;;;;;33.99;23.19;99679.47;6229942;28;97404;-58
2022/08/10 10:03:16;;;;;;;;;10.00;8.00;;;;;34.03;23.71;99672.78;6232052;27;96737;-60
2022/08/10 10:06:36;;;;;;;;;7.25;7.25;;;;;34.06;23.26;99668.47;6236825;28;96807;-56
2022/08/10 10:09:49;;;;;;;;;8.00;8.00;;;;;34.17;23.00;99670.38;6237653;27;97368;-60
2022/08/10 10:12:58;;;;;;;;;9.60;9.00;;;;;34.21;22.82;99659.31;6214758;28;97977;-64
2022/08/10 10:16:21;;;;;;;;;12.00;11.00;;;;;33.90;23.25;99610.53;6238317;28;96667;-62
2022/08/10 10:19:41;;;;;;;;;7.00;7.00;;;;;34.11;23.76;99666.19;6237264;28;97383;-56
2022/08/10 10:22:58;;;;;;;;;7.80;7.80;;;;;34.05;23.11;99664.06;6236960;27;97067;-55
2022/08/10 10:26:10;;;;;;;;;9.00;9.00;;;;;34.04;23.43;99657.63;6229485;28;97420;-57
2022/08/10 10:29:35;;;;;;;;;7.25;7.25;;;;;34.18;22.91;99648.81;6222898;28;97714;-57
2022/08/10 10:33:11;;;;;;;;;11.25;11.25;;;;;34.23;23.11;99642.97;6223207;28;96669;-58
2022/08/10 10:36:19;;;;;;;;;10.60;9.60;;;;;34.03;23.29;99625.22;6222027;27;97123;-60
2022/08/10 10:39:25;;;;;;;;;10.00;10.00;;;;;34.21;23.34;99643.31;6230212;27;97560;-55
2022/08/10 10:42:45;;;;;;;;;8.00;8.00;;;;;34.26;23.36;99636.63;6223189;28;97465;-64
2022/08/10 10:46:10;;;;;;;;;12.00;11.00;;;;;34.20;23.54;99624.91;6231653;27;96678;-53
2022/08/10 10:49:28;;;;;;;;;9.00;9.00;;;;;34.41;23.49;99643.41;6226305;28;97439;-58
2022/08/10 10:52:42;;;;;;;;;10.20;9.80;;;;;34.42;22.92;99636.63;6226946;28;97249;-59
2022/08/10 10:55:50;;;;;;;;;7.60;7.60;;;;;34.41;22.90;99643.41;6224141;28;97897;-56
2022/08/10 10:59:26;;;;;;;;;11.25;11.25;;;;;34.42;23.20;99643.03;6225876;27;97494;-54
2022/08/10 11:03:06;;;;;;;;;8.40;8.00;;;;;34.50;22.98;99630.03;6228777;28;96911;-59
2022/08/10 11:06:24;;;;;;;;;8.00;7.40;;;;;34.59;22.67;99644.66;6226325;28;97477;-62
2022/08/10 11:09:47;;;;;;;;;5.80;5.20;;;;;34.65;22.17;99627.19;6230739;28;97485;-60
2022/08/10 11:13:29;;;;;;;;;6.00;6.00;;;;;34.77;21.57;99629.94;6224133;28;96793;-57
2022/08/10 11:17:01;;;;;;;;;6.60;6.60;;;;;34.96;21.90;99626.34;6227678;27;97289;-57
2022/08/10 11:20:12;;;;;;;;;7.00;7.00;;;;;35.01;21.36;99625.25;6236734;28;98013;-58
2022/08/10 11:23:31;;;;;;;;;8.00;8.00;;;;;35.03;20.96;99623.72;6230195;27;96686;-56
2022/08/10 11:26:42;;;;;;;;;8.40;8.40;;;;;34.92;21.28;99617.06;6234980;27;97029;-55
2022/08/10 11:29:51;;;;;;;;;8.25;8.25;;;;;34.84;21.87;99622.88;6225302;28;99352;-61
2022/08/10 11:33:11;;;;;;;;;7.00;7.00;;;;;34.72;21.56;99615.38;6236325;28;96905;-58
2022/08/10 11:36:27;;;;;;;;;8.00;8.00;;;;;34.70;22.37;99620.53;6226735;27;96665;-59
2022/08/10 11:39:39;;;;;;;;;9.00;8.50;;;;;34.77;21.68;99618.72;6226565;28;96396;-57
2022/08/10 11:43:03;;;;;;;;;8.00;8.00;;;;;34.78;22.11;99603.53;6226753;28;97128;-56
2022/08/10 11:46:18;;;;;;;;;7.00;7.00;;;;;34.79;21.79;99604.38;6226763;28;97454;-58
2022/08/10 11:49:35;;;;;;;;;8.00;8.00;;;;;34.66;21.76;99605.59;6226521;27;97926;-55
2022/08/10 11:52:46;;;;;;;;;8.00;8.00;;;;;34.49;21.78;99609.63;6227861;28;97087;-56
2022/08/10 11:55:55;;;;;;;;;9.60;9.60;;;;;34.28;21.64;99609.91;6227337;27;97408;-60
2022/08/10 12:02:22;;;;;;;;;7.60;6.60;;;;;34.01;22.18;99577.22;6234248;27;97974;-55
2022/08/10 12:05:29;;;;;;;;;7.00;7.00;;;;;34.17;22.64;99594.00;6225165;28;96926;-58
2022/08/10 12:08:55;;;;;;;;;5.00;5.00;;;;;34.25;23.10;99595.84;6232066;28;98202;-54
2022/08/10 12:12:23;;;;;;;;;8.00;7.80;;;;;34.30;22.46;99587.16;6228744;28;96704;-56
2022/08/10 12:15:34;;;;;;;;;8.00;7.00;;;;;34.31;22.42;99591.56;6232886;28;97338;-57
2022/08/10 12:18:45;;;;;;;;;8.00;7.80;;;;;34.26;22.10;99587.06;6229318;28;96660;-56
2022/08/10 12:21:56;;;;;;;;;9.00;8.00;;;;;34.22;21.92;99588.97;6230733;28;97747;-56
2022/08/10 12:25:09;;;;;;;;;7.00;7.00;;;;;34.09;21.95;99584.63;6219770;28;97035;-59
2022/08/10 12:28:20;;;;;;;;;9.00;9.00;;;;;33.93;22.67;99575.41;6230447;28;97078;-59
2022/08/10 12:31:57;;;;;;;;;9.00;8.00;;;;;33.86;23.14;99580.81;6232683;27;97426;-56
2022/08/10 12:35:13;;;;;;;;;6.60;6.00;;;;;33.95;23.63;99573.06;6223965;28;97072;-54
2022/08/10 12:38:31;;;;;;;;;4.75;4.75;;;;;34.09;23.41;99570.63;6217088;28;97048;-55
2022/08/10 12:41:42;;;;;;;;;8.00;8.00;;;;;34.28;22.80;99567.13;6166640;28;96734;-53
2022/08/10 12:44:58;;;;;;;;;6.40;6.00;;;;;34.54;22.40;99569.34;6167957;28;97547;-57
2022/08/10 12:48:10;;;;;;;;;7.00;6.60;;;;;34.74;22.13;99566.25;6170611;28;98181;-58
2022/08/10 12:51:20;;;;;;;;;10.25;10.25;;;;;34.81;22.22;99564.75;6178435;28;97575;-58
2022/08/10 12:54:26;;;;;;;;;9.40;9.00;;;;;34.76;21.37;99551.84;6173583;28;96523;-56
2022/08/10 12:57:36;;;;;;;;;7.75;7.75;;;;;34.66;21.89;99558.00;6180678;28;97529;-57
2022/08/10 13:00:43;;;;;;;;;9.00;8.60;;;;;34.53;21.97;99548.09;6182834;28;96690;-56
2022/08/10 13:04:11;;;;;;;;;7.00;7.00;;;;;34.60;21.98;99539.88;6183471;28;97706;-57
2022/08/10 13:07:32;;;;;;;;;9.40;8.40;;;;;34.50;21.94;99523.66;6184469;28;97723;-59
2022/08/10 13:11:02;;;;;;;;;9.25;8.75;;;;;34.62;21.87;99526.31;6181351;28;96814;-58
2022/08/10 13:14:13;;;;;;;;;8.33;8.33;;;;;34.65;22.19;99534.00;6178853;28;97330;-59
2022/08/10 13:17:25;;;;;;;;;7.40;7.40;;;;;34.58;21.74;99543.03;6190526;28;97560;-54
2022/08/10 13:20:42;;;;;;;;;12.00;11.00;;;;;34.55;21.70;99540.16;6188087;28;97446;-56
2022/08/10 13:23:50;;;;;;;;;7.00;7.00;;;;;34.50;21.76;99532.03;6182821;28;97701;-55
2022/08/10 13:27:08;;;;;;;;;8.25;8.25;;;;;34.43;21.98;99531.88;6179449;28;97442;-59
2022/08/10 13:30:30;;;;;;;;;7.60;7.00;;;;;34.29;21.45;99533.16;6189133;28;97506;-56
2022/08/10 13:33:50;;;;;;;;;6.00;6.00;;;;;34.19;21.72;99527.31;6186028;28;96967;-55
2022/08/10 13:37:16;;;;;;;;;7.60;7.60;;;;;34.08;22.30;99524.22;6187803;28;97083;-56
2022/08/10 13:40:21;;;;;;;;;8.00;8.00;;;;;34.03;22.18;99512.47;6216645;28;96800;-56
2022/08/10 13:43:26;;;;;;;;;7.60;7.00;;;;;34.05;22.94;99507.34;6234715;28;98046;-56
2022/08/10 13:46:31;;;;;;;;;6.00;6.00;;;;;34.13;22.72;99501.56;6235293;28;97674;-56
2022/08/10 13:49:46;;;;;;;;;8.60;8.60;;;;;34.26;22.32;99505.88;6236489;27;97626;-54
2022/08/10 13:52:52;;;;;;;;;7.60;7.60;;;;;34.19;21.76;99472.16;6223827;28;96830;-54
2022/08/10 13:55:56;;;;;;;;;9.00;8.00;;;;;34.47;21.62;99504.75;6220983;27;97482;-60
2022/08/10 13:59:01;;;;;;;;;10.00;9.50;;;;;34.51;22.01;99503.66;6220995;28;96644;-56
2022/08/10 14:02:14;;;;;;;;;8.00;8.00;;;;;34.62;22.07;99509.50;6236186;28;96845;-63
2022/08/10 14:05:28;;;;;;;;;9.20;9.20;;;;;34.71;21.22;99498.91;6230074;27;97586;-55
2022/08/10 14:08:34;;;;;;;;;6.40;6.40;;;;;34.76;21.11;99493.03;6235166;28;97403;-61
2022/08/10 14:11:39;;;;;;;;;9.00;8.00;;;;;34.81;21.72;99484.31;6219791;28;97455;-55
2022/08/10 14:14:45;;;;;;;;;6.80;6.80;;;;;34.91;21.64;99477.31;6230538;28;97704;-56
2022/08/10 14:17:57;;;;;;;;;7.00;7.00;;;;;34.97;21.06;99476.66;6225626;28;97425;-61
2022/08/10 14:21:02;;;;;;;;;10.00;10.00;;;;;34.98;20.99;99481.09;6239180;27;97503;-57
2022/08/10 14:24:19;;;;;;;;;8.60;8.60;;;;;34.90;20.14;99484.91;6239170;27;96965;-61
2022/08/10 14:27:23;;;;;;;;;9.00;9.00;;;;;34.81;20.54;99486.31;6231536;28;96642;-56
2022/08/10 14:30:55;;;;;;;;;8.00;8.00;;;;;34.59;20.99;99485.84;6237207;28;97426;-54
2022/08/10 14:34:00;;;;;;;;;6.20;6.20;;;;;34.45;21.41;99481.94;6223472;28;97222;-58
2022/08/10 14:37:10;;;;;;;;;7.00;6.00;;;;;34.22;21.38;99482.59;6236135;28;97249;-56
2022/08/10 14:40:16;;;;;;;;;9.00;9.00;;;;;34.04;21.52;99488.94;6235254;28;97130;-59
2022/08/10 14:43:26;;;;;;;;;9.00;9.00;;;;;33.86;22.42;99486.53;6230176;27;96978;-55
2022/08/10 14:46:32;;;;;;;;;6.40;5.40;;;;;33.81;22.78;99474.81;6236378;28;96837;-54
2022/08/10 14:49:38;;;;;;;;;5.60;5.60;;;;;33.79;22.59;99482.72;6232605;28;97382;-61
2022/08/10 14:53:07;;;;;;;;;5.00;5.00;;;;;33.82;22.14;99470.81;6236049;28;97385;-58